Time;durP1;ratioP1;P1;durP2;ratioP2;P2;SDS_P1;SDS_P2;PMS_P1;PMS_P2;Temp;Humidity;BMP_temperature;BMP_pressure;BME280_temperature;BME280_humidity;BME280_pressure;Samples;Min_cycle;Max_cycle;Signal;HPM_P1;HPM_P2
2021/06/22 00:01:56;;;;;;;11.88;3.40;;;;;;;20.65;70.03;97906.56;5034296;28;20116;-61
2021/06/22 00:04:21;;;;;;;11.15;3.50;;;;;;;20.59;70.11;97905.59;5042736;28;20779;-61
2021/06/22 00:06:47;;;;;;;11.82;3.72;;;;;;;20.64;69.92;97902.31;5035592;28;20029;-63
2021/06/22 00:09:13;;;;;;;10.35;3.30;;;;;;;20.55;70.13;97902.63;5039012;28;20017;-63
2021/06/22 00:11:38;;;;;;;13.40;3.47;;;;;;;20.44;70.06;97903.38;5038833;28;20387;-62
2021/06/22 00:14:04;;;;;;;11.85;3.90;;;;;;;20.49;70.04;97905.34;5039476;28;20356;-63
2021/06/22 00:16:29;;;;;;;11.32;3.70;;;;;;;20.52;69.83;97905.69;5041925;28;20113;-64
2021/06/22 00:18:55;;;;;;;13.68;3.70;;;;;;;20.34;69.45;97868.81;5040627;28;20052;-62
2021/06/22 00:21:20;;;;;;;12.77;3.70;;;;;;;20.55;69.60;97889.41;5055267;28;20024;-62
2021/06/22 00:23:45;;;;;;;14.80;4.07;;;;;;;20.41;69.45;97869.50;5045375;28;20021;-63
2021/06/22 00:26:11;;;;;;;12.25;3.92;;;;;;;20.59;69.66;97897.69;5037059;28;20112;-63
2021/06/22 00:28:36;;;;;;;11.23;3.78;;;;;;;20.41;69.61;97887.16;5044576;28;20025;-61
2021/06/22 00:31:02;;;;;;;12.38;3.65;;;;;;;20.58;69.73;97896.06;5056852;28;20057;-63
2021/06/22 00:33:27;;;;;;;12.55;3.50;;;;;;;20.45;69.41;97860.09;5044496;28;20119;-63
2021/06/22 00:35:53;;;;;;;14.65;3.63;;;;;;;20.72;70.60;97897.50;5040274;28;20021;-62
2021/06/22 00:38:18;;;;;;;11.30;3.85;;;;;;;20.82;70.88;97894.28;5043747;28;20163;-63
2021/06/22 00:40:43;;;;;;;10.70;3.95;;;;;;;20.85;70.78;97900.97;5045802;28;20025;-63
2021/06/22 00:43:09;;;;;;;14.13;4.18;;;;;;;20.85;70.81;97888.56;5041561;28;20830;-62
2021/06/22 00:45:35;;;;;;;12.80;3.88;;;;;;;20.93;70.86;97896.13;5061172;28;20095;-63
2021/06/22 00:48:02;;;;;;;14.10;4.10;;;;;;;20.90;70.48;97891.31;5039198;28;20082;-63
2021/06/22 00:50:27;;;;;;;12.15;3.60;;;;;;;20.98;70.27;97897.31;5042756;28;20036;-63
2021/06/22 00:52:53;;;;;;;12.43;3.83;;;;;;;21.01;70.47;97894.19;5040315;28;20105;-63
2021/06/22 00:55:34;;;;;;;12.43;4.07;;;;;;;20.97;70.55;97890.41;5042002;28;20107;-63
2021/06/22 00:58:04;;;;;;;12.20;3.92;;;;;;;20.91;70.60;97892.91;5036034;28;20028;-63
2021/06/22 01:00:30;;;;;;;13.43;4.38;;;;;;;20.94;70.65;97902.25;5040924;28;20029;-62
2021/06/22 01:02:57;;;;;;;14.68;3.72;;;;;;;20.94;70.69;97899.59;5038041;28;20036;-63
2021/06/22 01:05:24;;;;;;;16.88;4.72;;;;;;;20.89;70.62;97895.00;5042352;28;20032;-62
2021/06/22 01:07:54;;;;;;;12.23;3.58;;;;;;;20.87;71.28;97888.34;5054004;28;20109;-61
2021/06/22 01:10:23;;;;;;;11.98;3.72;;;;;;;20.86;71.19;97894.63;5041012;28;20806;-62
2021/06/22 01:12:49;;;;;;;17.80;4.53;;;;;;;20.77;70.90;97885.44;5039324;28;20021;-62
2021/06/22 01:15:20;;;;;;;12.88;4.00;;;;;;;20.71;70.97;97879.22;5057872;28;20033;-63
2021/06/22 01:17:45;;;;;;;14.82;4.05;;;;;;;20.61;70.86;97863.97;5041276;28;20471;-63
2021/06/22 01:20:12;;;;;;;15.05;3.97;;;;;;;20.79;70.78;97884.19;5036571;28;20029;-63
2021/06/22 01:22:42;;;;;;;11.32;3.95;;;;;;;20.82;71.04;97882.94;5055813;28;20078;-63
2021/06/22 01:25:08;;;;;;;12.07;3.95;;;;;;;20.58;71.21;97860.94;5053815;28;20480;-63
2021/06/22 01:27:33;;;;;;;14.30;4.30;;;;;;;20.68;70.87;97885.78;5035945;28;20109;-61
2021/06/22 01:30:00;;;;;;;13.55;3.63;;;;;;;20.53;70.85;97858.97;5038798;28;20036;-63
2021/06/22 01:32:26;;;;;;;16.15;4.05;;;;;;;20.67;70.67;97893.94;5035683;28;20443;-62
2021/06/22 01:34:51;;;;;;;11.32;3.63;;;;;;;20.58;70.33;97871.50;5033946;28;20036;-62
2021/06/22 01:37:17;;;;;;;12.93;3.85;;;;;;;20.41;71.43;97876.59;5042750;28;20718;-62
2021/06/22 01:39:42;;;;;;;14.75;4.07;;;;;;;20.69;70.91;97918.28;5036529;28;20025;-64
2021/06/22 01:42:07;;;;;;;15.20;3.95;;;;;;;20.77;70.72;97912.66;5035378;28;20029;-63
2021/06/22 01:44:33;;;;;;;12.27;3.80;;;;;;;20.66;70.70;97918.72;5044136;28;20032;-62
2021/06/22 01:46:59;;;;;;;10.40;4.00;;;;;;;20.72;70.65;97916.00;5035318;28;20590;-62
2021/06/22 01:49:25;;;;;;;12.30;3.95;;;;;;;20.72;71.08;97909.91;5054012;28;20070;-61
2021/06/22 01:51:50;;;;;;;12.02;3.97;;;;;;;20.61;70.57;97908.03;5028325;28;20033;-62
2021/06/22 01:54:16;;;;;;;10.75;4.00;;;;;;;20.61;70.83;97903.56;5035914;28;20109;-63
2021/06/22 01:56:48;;;;;;;14.05;4.32;;;;;;;20.58;70.98;97908.47;5038700;28;20404;-62
2021/06/22 01:59:13;;;;;;;11.60;4.45;;;;;;;20.51;71.69;97906.72;5056830;28;20582;-63
2021/06/22 02:01:40;;;;;;;11.73;3.92;;;;;;;20.54;71.29;97906.28;5037640;28;20025;-63
2021/06/22 02:04:06;;;;;;;13.02;4.30;;;;;;;20.46;71.73;97909.25;5042358;28;20134;-61
2021/06/22 02:06:31;;;;;;;11.77;3.92;;;;;;;20.45;71.92;97907.63;5054697;28;20041;-63
2021/06/22 02:08:57;;;;;;;10.27;3.85;;;;;;;20.20;71.86;97865.53;5043400;28;20467;-62
2021/06/22 02:11:22;;;;;;;10.48;3.58;;;;;;;20.48;71.95;97898.44;5040642;28;20029;-62
2021/06/22 02:13:48;;;;;;;14.32;4.47;;;;;;;20.21;72.33;97861.09;5035853;28;20041;-63
2021/06/22 02:16:15;;;;;;;10.88;3.72;;;;;;;19.90;72.23;97805.69;5041044;28;20025;-63
2021/06/22 02:18:40;;;;;;;13.02;4.50;;;;;;;20.43;72.26;97899.13;5035570;28;20120;-62
2021/06/22 02:21:06;;;;;;;13.13;4.25;;;;;;;20.34;72.61;97896.00;5041153;28;20017;-64
2021/06/22 02:23:32;;;;;;;14.88;4.10;;;;;;;20.28;73.25;97889.00;5040589;28;20116;-63
2021/06/22 02:25:58;;;;;;;16.70;4.78;;;;;;;20.30;73.09;97886.13;5038697;28;20021;-63
2021/06/22 02:28:23;;;;;;;13.32;3.95;;;;;;;20.33;73.58;97899.69;5039077;28;20036;-63
2021/06/22 02:30:54;;;;;;;10.35;3.97;;;;;;;20.26;73.48;97890.22;5041458;28;20090;-63
2021/06/22 02:33:20;;;;;;;9.35;3.95;;;;;;;20.30;73.16;97888.78;5057797;28;20095;-63
2021/06/22 02:35:46;;;;;;;12.77;4.25;;;;;;;20.24;73.02;97889.66;5036785;28;20426;-62
2021/06/22 02:38:11;;;;;;;11.27;3.83;;;;;;;20.19;72.53;97877.16;5039693;28;20047;-62
2021/06/22 02:40:37;;;;;;;13.07;4.70;;;;;;;20.17;72.32;97871.28;5041804;28;20012;-61
2021/06/22 02:43:04;;;;;;;17.02;4.13;;;;;;;20.23;72.15;97880.94;5038656;28;20021;-63
2021/06/22 02:45:29;;;;;;;11.82;4.22;;;;;;;20.34;71.99;97903.13;5035739;28;20112;-63
2021/06/22 02:47:56;;;;;;;12.07;4.03;;;;;;;20.33;72.26;97907.59;5053222;28;20166;-63
2021/06/22 02:50:22;;;;;;;12.27;4.38;;;;;;;20.33;72.56;97914.69;5036522;28;20029;-61
2021/06/22 02:52:48;;;;;;;14.00;4.28;;;;;;;20.21;72.54;97912.03;5055830;28;20025;-63
2021/06/22 02:55:20;;;;;;;13.07;4.30;;;;;;;20.17;72.66;97916.16;5043265;28;20538;-63
2021/06/22 02:57:47;;;;;;;12.95;4.15;;;;;;;20.19;72.41;97911.47;5036133;28;20692;-62
2021/06/22 03:00:14;;;;;;;13.40;4.13;;;;;;;20.06;72.74;97879.94;5041731;28;20032;-62
2021/06/22 03:02:39;;;;;;;12.70;4.25;;;;;;;20.33;72.86;97915.53;5041949;28;20098;-63
2021/06/22 03:05:05;;;;;;;12.45;4.30;;;;;;;20.12;72.96;97895.69;5038943;28;20033;-61
2021/06/22 03:07:30;;;;;;;11.10;4.18;;;;;;;20.26;72.94;97929.81;5040631;28;20430;-60
2021/06/22 03:09:56;;;;;;;9.95;4.15;;;;;;;20.24;72.83;97923.97;5038538;28;20030;-63
2021/06/22 03:12:21;;;;;;;11.25;4.50;;;;;;;20.33;72.71;97931.38;5041291;28;20028;-62
2021/06/22 03:14:46;;;;;;;12.52;3.97;;;;;;;20.15;72.66;97894.44;5039589;28;20408;-62
2021/06/22 03:17:12;;;;;;;15.13;4.35;;;;;;;20.42;72.51;97925.75;5039684;28;20025;-62
2021/06/22 03:19:37;;;;;;;13.43;4.13;;;;;;;20.38;72.24;97933.31;5041123;28;20051;-62
2021/06/22 03:22:03;;;;;;;10.60;3.92;;;;;;;20.17;72.43;97898.47;5053286;28;20128;-63
2021/06/22 03:24:28;;;;;;;13.73;4.90;;;;;;;20.27;72.70;97926.97;5034831;28;20079;-63
2021/06/22 03:26:53;;;;;;;11.65;4.28;;;;;;;20.04;72.93;97896.03;5040302;28;20028;-63
2021/06/22 03:29:20;;;;;;;11.05;4.28;;;;;;;20.14;72.81;97898.13;5053220;28;20056;-62
2021/06/22 03:31:45;;;;;;;10.45;4.72;;;;;;;20.09;73.51;97896.13;5033823;28;20075;-62
2021/06/22 03:34:11;;;;;;;17.25;6.13;;;;;;;20.32;74.70;97935.03;5053729;28;20543;-63
2021/06/22 03:36:36;;;;;;;15.57;5.32;;;;;;;20.29;73.81;97932.81;5035564;28;20032;-61
2021/06/22 03:39:03;;;;;;;13.68;4.50;;;;;;;20.09;73.74;97914.59;5038642;28;20032;-63
2021/06/22 03:41:31;;;;;;;12.85;4.60;;;;;;;20.32;73.71;97931.59;5056884;28;20175;-63
2021/06/22 03:43:57;;;;;;;11.18;4.53;;;;;;;20.29;73.54;97940.75;5037678;28;20096;-63
2021/06/22 03:46:22;;;;;;;15.70;4.40;;;;;;;20.32;73.57;97934.22;5039473;28;20021;-64
2021/06/22 03:48:48;;;;;;;13.48;4.85;;;;;;;20.40;73.55;97930.47;5034951;28;20026;-62
2021/06/22 03:51:13;;;;;;;12.85;4.43;;;;;;;20.25;73.84;97920.31;5032851;28;20017;-63
2021/06/22 03:53:41;;;;;;;12.90;4.65;;;;;;;20.39;73.59;97923.56;5040838;28;20050;-63
2021/06/22 03:56:07;;;;;;;12.43;4.63;;;;;;;20.18;73.09;97894.00;5038389;28;20531;-63
2021/06/22 03:58:33;;;;;;;14.05;4.97;;;;;;;20.23;73.13;97909.19;5037846;28;20052;-63
2021/06/22 04:00:59;;;;;;;11.98;4.72;;;;;;;20.34;73.42;97938.25;5051761;28;20033;-63
2021/06/22 04:03:24;;;;;;;14.13;4.70;;;;;;;20.33;72.89;97938.47;5039742;28;20124;-62
2021/06/22 04:05:50;;;;;;;17.10;4.70;;;;;;;20.19;73.23;97919.38;5041183;28;20463;-61
2021/06/22 04:08:15;;;;;;;11.65;4.65;;;;;;;20.06;72.87;97904.53;5031981;28;20103;-62
2021/06/22 04:10:40;;;;;;;14.10;4.88;;;;;;;20.26;73.24;97937.75;5039760;28;20039;-62
2021/06/22 04:13:06;;;;;;;13.38;4.65;;;;;;;20.19;73.19;97935.22;5032942;28;20025;-63
2021/06/22 04:15:31;;;;;;;11.43;4.60;;;;;;;20.08;73.60;97928.84;5038413;28;20029;-62
2021/06/22 04:18:05;;;;;;;13.20;4.90;;;;;;;20.14;73.69;97948.25;5039998;28;20616;-64
2021/06/22 04:20:30;;;;;;;13.63;4.63;;;;;;;20.04;73.38;97913.66;5033740;28;20108;-62
2021/06/22 04:22:56;;;;;;;12.93;4.50;;;;;;;20.28;72.51;97943.59;5051453;28;20475;-63
2021/06/22 04:25:21;;;;;;;14.90;4.28;;;;;;;20.30;72.36;97957.41;5039159;28;20544;-62
2021/06/22 04:27:47;;;;;;;11.57;4.32;;;;;;;20.29;72.59;97959.22;5051008;28;20036;-63
2021/06/22 04:30:13;;;;;;;16.98;4.53;;;;;;;20.36;72.23;97959.94;5039367;28;20504;-63
2021/06/22 04:32:38;;;;;;;12.02;4.90;;;;;;;20.29;72.66;97964.50;5041370;28;20029;-63
2021/06/22 04:35:04;;;;;;;12.65;5.22;;;;;;;20.22;73.16;97970.91;5036684;28;20029;-63
2021/06/22 04:37:30;;;;;;;12.95;4.80;;;;;;;20.08;73.93;97978.97;5031888;28;20078;-61
2021/06/22 04:39:55;;;;;;;12.15;4.93;;;;;;;20.06;74.19;97977.56;5053493;28;20507;-62
2021/06/22 04:42:21;;;;;;;12.57;5.30;;;;;;;20.20;73.73;97976.41;5037991;28;20029;-63
2021/06/22 04:44:47;;;;;;;14.30;5.00;;;;;;;20.21;73.37;97977.22;5034370;28;20104;-61
2021/06/22 04:47:12;;;;;;;12.02;4.75;;;;;;;20.13;73.65;97963.31;5037082;28;20112;-61
2021/06/22 04:49:38;;;;;;;18.25;5.55;;;;;;;19.96;74.71;97971.00;5037544;28;20133;-63
2021/06/22 04:52:03;;;;;;;14.30;5.70;;;;;;;20.04;74.89;97987.56;5051354;28;20120;-63
2021/06/22 04:54:29;;;;;;;11.30;4.72;;;;;;;19.94;74.43;97945.88;5053405;28;20025;-63
2021/06/22 04:56:54;;;;;;;12.77;5.53;;;;;;;20.15;74.19;97978.88;5037682;28;20029;-62
2021/06/22 04:59:20;;;;;;;15.95;5.45;;;;;;;19.94;74.10;97949.31;5032649;28;20124;-62
2021/06/22 05:01:45;;;;;;;14.35;5.25;;;;;;;20.22;73.28;97974.34;5037818;28;20802;-62
2021/06/22 05:04:12;;;;;;;14.30;5.00;;;;;;;20.14;73.62;97964.88;5038714;28;20032;-62
2021/06/22 05:06:38;;;;;;;12.68;4.93;;;;;;;20.30;72.94;97976.69;5036034;28;20029;-63
2021/06/22 05:09:03;;;;;;;12.40;4.90;;;;;;;20.15;72.80;97950.69;5036947;28;20021;-62
2021/06/22 05:11:29;;;;;;;12.65;4.88;;;;;;;20.28;73.22;97976.09;5039168;28;20041;-62
2021/06/22 05:13:56;;;;;;;14.55;5.28;;;;;;;20.40;72.91;97977.97;5045474;28;20033;-63
2021/06/22 05:16:22;;;;;;;16.17;5.45;;;;;;;20.29;73.21;97990.09;5037629;28;20079;-61
2021/06/22 05:18:48;;;;;;;14.88;5.28;;;;;;;20.16;73.86;97991.88;5038150;28;20048;-61
2021/06/22 05:21:13;;;;;;;11.55;4.90;;;;;;;20.28;73.10;97986.66;5036975;28;20127;-62
2021/06/22 05:23:39;;;;;;;17.17;6.13;;;;;;;20.45;73.04;97994.75;5039122;28;20040;-61
2021/06/22 05:26:05;;;;;;;14.77;5.50;;;;;;;20.50;73.57;97992.25;5036522;28;20034;-63
2021/06/22 05:28:30;;;;;;;18.88;5.45;;;;;;;20.47;73.03;97997.19;5047646;28;20465;-63
2021/06/22 05:30:56;;;;;;;13.45;5.35;;;;;;;20.34;73.69;97996.31;5036528;28;20068;-63
2021/06/22 05:33:22;;;;;;;13.68;5.05;;;;;;;20.22;74.70;97984.88;5055907;28;20040;-62
2021/06/22 05:35:47;;;;;;;12.40;5.10;;;;;;;20.08;75.23;97986.91;5054518;28;20112;-63
2021/06/22 05:38:13;;;;;;;14.13;4.97;;;;;;;20.30;75.10;97997.78;5042574;28;20151;-63
2021/06/22 05:40:38;;;;;;;13.85;5.10;;;;;;;20.34;75.25;97993.69;5037821;28;20033;-62
2021/06/22 05:43:04;;;;;;;13.70;5.00;;;;;;;20.37;75.43;98008.28;5041137;28;20830;-63
2021/06/22 05:45:30;;;;;;;11.32;5.40;;;;;;;20.53;75.05;97996.28;5039317;28;20041;-63
2021/06/22 05:47:55;;;;;;;11.98;4.75;;;;;;;20.46;75.12;98004.31;5037710;28;20624;-62
2021/06/22 05:50:21;;;;;;;11.38;4.80;;;;;;;20.45;75.44;98000.03;5033753;28;20040;-62
2021/06/22 05:52:46;;;;;;;13.02;5.60;;;;;;;20.57;74.92;98008.00;5040533;28;20033;-61
2021/06/22 05:55:21;;;;;;;13.80;4.97;;;;;;;20.57;74.83;98012.47;5054405;28;20025;-62
2021/06/22 05:57:48;;;;;;;12.85;5.35;;;;;;;20.47;75.41;98015.66;5031536;28;20023;-62
2021/06/22 06:00:19;;;;;;;14.77;5.18;;;;;;;20.29;75.03;97982.19;5037338;28;20507;-62
2021/06/22 06:02:45;;;;;;;11.75;4.38;;;;;;;20.46;74.85;98006.13;5056826;28;20024;-62
2021/06/22 06:05:11;;;;;;;14.48;5.10;;;;;;;20.60;74.85;98002.28;5050355;28;20118;-62
2021/06/22 06:07:37;;;;;;;14.35;5.32;;;;;;;20.66;74.21;97984.75;5043940;28;20041;-62
2021/06/22 06:10:04;;;;;;;13.38;4.65;;;;;;;20.50;74.60;97973.78;5036277;28;20645;-62
2021/06/22 06:12:29;;;;;;;12.00;4.75;;;;;;;20.86;74.39;98009.06;5025043;28;20035;-63
2021/06/22 06:14:55;;;;;;;15.65;4.57;;;;;;;20.98;73.63;98009.09;5060130;28;20033;-62
2021/06/22 06:17:20;;;;;;;15.88;4.82;;;;;;;20.97;73.02;97993.47;5033373;28;20029;-61
2021/06/22 06:19:46;;;;;;;13.73;4.90;;;;;;;21.04;72.82;98007.38;5041491;28;20468;-62
2021/06/22 06:22:11;;;;;;;10.98;4.70;;;;;;;21.18;72.16;98003.50;5033926;28;20112;-62
2021/06/22 06:24:36;;;;;;;12.32;4.25;;;;;;;21.07;72.77;97969.94;5042172;28;20029;-62
2021/06/22 06:27:06;;;;;;;10.45;4.07;;;;;;;21.30;70.44;98006.13;5036946;28;20025;-61
2021/06/22 06:32:03;;;;;;;17.20;4.60;;;;;;;21.04;70.63;97968.53;5056583;28;20063;-62
2021/06/22 06:34:28;;;;;;;13.75;4.90;;;;;;;21.32;71.16;98009.38;5040436;28;20041;-61
2021/06/22 06:36:53;;;;;;;12.15;4.43;;;;;;;21.36;69.17;98012.38;5057570;28;20601;-62
2021/06/22 06:39:19;;;;;;;14.80;4.40;;;;;;;21.48;69.07;98008.72;5038223;28;20107;-62
2021/06/22 06:41:44;;;;;;;12.88;3.97;;;;;;;21.59;68.27;98015.03;5057874;28;20040;-63
2021/06/22 06:44:09;;;;;;;10.75;4.03;;;;;;;21.55;68.15;98013.88;5037616;28;20383;-63
2021/06/22 06:46:35;;;;;;;12.82;4.53;;;;;;;21.44;68.20;97983.72;5041416;28;20032;-61
2021/06/22 06:49:00;;;;;;;11.48;4.00;;;;;;;21.66;68.17;98012.28;5038035;28;20047;-62
2021/06/22 06:51:26;;;;;;;14.55;4.70;;;;;;;21.39;68.47;97980.16;5027927;28;20029;-63
2021/06/22 06:53:51;;;;;;;11.90;4.85;;;;;;;21.81;67.82;98019.75;5054070;28;20115;-62
2021/06/22 06:56:16;;;;;;;13.55;4.30;;;;;;;21.88;68.12;98028.38;5036407;28;20075;-62
2021/06/22 06:58:42;;;;;;;11.35;4.28;;;;;;;21.90;67.48;98026.28;5033981;28;20098;-63
2021/06/22 07:01:07;;;;;;;13.00;4.30;;;;;;;21.97;66.32;98012.94;5054566;28;20104;-62
2021/06/22 07:03:33;;;;;;;15.68;4.43;;;;;;;22.04;65.88;98024.22;5038229;28;20547;-63
2021/06/22 07:05:59;;;;;;;16.23;4.90;;;;;;;22.05;65.87;98002.81;5038489;28;20033;-62
2021/06/22 07:08:25;;;;;;;12.48;4.25;;;;;;;22.18;65.65;98025.56;5034212;28;20563;-61
2021/06/22 07:10:50;;;;;;;12.80;4.35;;;;;;;21.96;66.55;98000.72;5040322;28;20028;-63
2021/06/22 07:13:16;;;;;;;12.55;4.80;;;;;;;22.11;64.96;98013.50;5036753;28;20029;-61
2021/06/22 07:15:42;;;;;;;16.23;4.43;;;;;;;22.11;64.42;97989.66;5040471;28;20083;-63
2021/06/22 07:18:07;;;;;;;18.30;5.13;;;;;;;22.13;63.74;97967.22;5039541;28;20155;-63
2021/06/22 07:20:33;;;;;;;18.35;4.72;;;;;;;22.37;62.98;97998.94;5054424;28;20027;-63
2021/06/22 07:22:58;;;;;;;16.38;4.75;;;;;;;22.59;62.75;98031.66;5036223;28;20033;-62
2021/06/22 07:25:27;;;;;;;15.18;4.85;;;;;;;22.58;63.24;98042.50;5051501;28;20853;-62
2021/06/22 07:27:53;;;;;;;15.48;4.15;;;;;;;22.42;63.07;98026.31;5039373;28;20037;-62
2021/06/22 07:30:22;;;;;;;13.35;4.18;;;;;;;22.52;62.27;98019.59;5039729;28;20170;-62
2021/06/22 07:32:47;;;;;;;12.27;4.03;;;;;;;22.51;63.52;98025.97;5038552;28;20477;-62
2021/06/22 07:35:13;;;;;;;13.88;4.50;;;;;;;22.48;62.57;98005.22;5036395;28;20025;-62
2021/06/22 07:37:40;;;;;;;14.63;4.70;;;;;;;22.58;63.94;98008.06;5036620;28;20052;-63
2021/06/22 07:40:06;;;;;;;14.95;3.90;;;;;;;22.55;62.32;97976.75;5039723;28;20025;-62
2021/06/22 07:42:32;;;;;;;13.93;4.20;;;;;;;23.34;59.91;98010.44;5052052;28;20039;-62
2021/06/22 07:44:57;;;;;;;16.15;4.40;;;;;;;23.42;59.08;97971.03;5040794;28;20472;-64
2021/06/22 07:47:23;;;;;;;12.93;4.60;;;;;;;23.25;60.04;98004.72;5042871;28;20024;-63
2021/06/22 07:49:48;;;;;;;13.30;4.15;;;;;;;23.38;60.50;98011.53;5040448;28;20674;-63
2021/06/22 07:52:14;;;;;;;13.73;5.03;;;;;;;23.45;60.55;97988.31;5053030;28;20036;-62
2021/06/22 07:54:40;;;;;;;12.98;4.45;;;;;;;23.80;59.74;98000.50;5057123;28;20025;-63
2021/06/22 07:57:06;;;;;;;14.38;4.70;;;;;;;23.79;60.12;97997.03;5038966;28;20110;-62
2021/06/22 07:59:31;;;;;;;14.20;4.10;;;;;;;24.15;58.25;97996.69;5038228;28;20098;-62
2021/06/22 08:01:57;;;;;;;13.00;4.40;;;;;;;24.49;57.06;97991.22;5048081;28;20041;-63
2021/06/22 08:04:22;;;;;;;16.85;4.38;;;;;;;24.48;56.47;97969.16;5033934;28;20024;-62
2021/06/22 08:06:47;;;;;;;13.38;4.47;;;;;;;24.74;55.89;97994.16;5039451;28;20132;-62
2021/06/22 08:09:13;;;;;;;14.93;4.38;;;;;;;24.53;55.56;97993.16;5037246;28;20029;-62
2021/06/22 08:11:38;;;;;;;12.65;4.20;;;;;;;24.21;56.04;97969.13;5035446;28;20071;-63
2021/06/22 08:14:04;;;;;;;18.75;4.70;;;;;;;24.30;56.44;98009.34;5027530;28;20429;-62
2021/06/22 08:16:29;;;;;;;13.90;4.50;;;;;;;24.08;56.58;97985.47;5031915;28;20636;-63
2021/06/22 08:18:55;;;;;;;15.90;4.00;;;;;;;24.02;56.75;97999.72;5031512;28;20018;-62
2021/06/22 08:21:20;;;;;;;13.27;4.43;;;;;;;23.84;57.51;98009.59;5033158;28;20107;-61
2021/06/22 08:23:45;;;;;;;13.98;4.28;;;;;;;23.70;57.14;98010.97;5039733;28;20544;-62
2021/06/22 08:26:11;;;;;;;15.88;4.63;;;;;;;23.51;57.60;98010.41;5028197;28;20686;-63
2021/06/22 08:28:37;;;;;;;13.82;4.50;;;;;;;23.42;57.95;98024.09;5027904;28;20024;-62
2021/06/22 08:31:02;;;;;;;14.93;4.38;;;;;;;23.50;58.09;98033.47;5049010;28;20407;-63
2021/06/22 08:33:28;;;;;;;12.25;4.20;;;;;;;23.55;58.11;98038.88;5031236;28;20028;-62
2021/06/22 08:35:53;;;;;;;11.55;3.80;;;;;;;23.68;57.92;98032.44;5029971;28;20092;-63
2021/06/22 08:38:19;;;;;;;10.48;3.60;;;;;;;23.75;58.11;98026.97;5036781;28;20107;-62
2021/06/22 08:40:46;;;;;;;12.13;3.97;;;;;;;23.83;57.41;98023.91;5035309;28;20036;-63
2021/06/22 08:43:14;;;;;;;10.40;3.92;;;;;;;23.70;57.85;98017.06;5031875;28;20597;-63
2021/06/22 08:45:40;;;;;;;11.40;4.07;;;;;;;24.37;56.62;98023.25;5041823;28;20032;-63
2021/06/22 08:48:09;;;;;;;11.40;4.68;;;;;;;24.94;54.47;98027.31;5037172;28;20025;-63
2021/06/22 08:50:35;;;;;;;15.70;4.23;;;;;;;25.21;53.60;98037.09;5044265;28;20029;-63
2021/06/22 08:53:00;;;;;;;9.68;3.58;;;;;;;25.38;52.22;98000.53;5042354;28;20028;-63
2021/06/22 08:55:26;;;;;;;11.45;3.80;;;;;;;24.99;53.27;98027.34;5040758;28;20040;-63
2021/06/22 08:57:54;;;;;;;12.52;3.95;;;;;;;24.94;53.09;98045.91;5038489;28;20782;-61
2021/06/22 09:00:20;;;;;;;9.02;3.60;;;;;;;25.11;52.04;98043.94;5039773;28;20037;-63
2021/06/22 09:02:45;;;;;;;10.43;3.50;;;;;;;25.04;52.52;98046.00;5043135;28;20035;-63
2021/06/22 09:05:11;;;;;;;9.15;3.47;;;;;;;24.94;51.59;98041.41;5038710;28;20483;-62
2021/06/22 09:07:56;;;;;;;12.50;3.80;;;;;;;25.35;51.24;98034.84;5040755;28;20025;-61
2021/06/22 09:10:21;;;;;;;12.70;4.30;;;;;;;25.38;51.27;98043.13;5040946;28;20107;-63
2021/06/22 09:12:48;;;;;;;12.30;3.85;;;;;;;25.75;50.98;98034.31;5041599;28;20056;-62
2021/06/22 09:15:24;;;;;;;13.30;4.20;;;;;;;26.11;50.54;98036.41;5054484;28;20108;-63
2021/06/22 09:17:49;;;;;;;15.30;4.25;;;;;;;25.58;51.32;98049.66;5037390;28;20033;-63
2021/06/22 09:20:35;;;;;;;11.70;3.90;;;;;;;25.08;52.17;98059.59;5040627;28;20025;-62
2021/06/22 09:23:15;;;;;;;15.07;3.72;;;;;;;25.90;50.61;98061.03;5043638;28;20025;-63
2021/06/22 09:25:42;;;;;;;12.73;4.13;;;;;;;26.06;50.01;98056.59;5031311;28;20100;-63
2021/06/22 09:28:08;;;;;;;14.10;4.38;;;;;;;26.08;49.42;98054.50;5034632;28;20029;-62
2021/06/22 09:30:44;;;;;;;10.43;3.67;;;;;;;25.82;49.53;98028.75;5037542;28;20035;-62
2021/06/22 09:33:19;;;;;;;11.25;3.80;;;;;;;26.69;47.98;98057.66;5037281;28;20060;-63
2021/06/22 09:35:45;;;;;;;12.75;3.85;;;;;;;26.30;48.33;98058.84;5034773;28;20104;-62
2021/06/22 09:38:11;;;;;;;11.75;3.83;;;;;;;26.54;47.59;98058.41;5038350;28;20122;-63
2021/06/22 09:40:37;;;;;;;11.98;4.10;;;;;;;26.83;46.53;98072.09;5038505;28;20799;-63
2021/06/22 09:43:03;;;;;;;12.48;4.13;;;;;;;27.14;46.85;98069.47;5036384;28;20029;-62
2021/06/22 09:45:29;;;;;;;13.02;4.00;;;;;;;27.18;46.03;98044.69;5039093;28;20037;-63
2021/06/22 09:47:59;;;;;;;13.18;4.25;;;;;;;26.96;46.59;98052.13;5035177;28;20029;-61
2021/06/22 09:50:35;;;;;;;14.88;4.38;;;;;;;27.49;45.41;98071.41;5041585;28;20025;-63
2021/06/22 09:53:29;;;;;;;13.65;3.63;;;;;;;27.65;44.46;98071.38;5036261;28;20090;-62
2021/06/22 09:55:55;;;;;;;12.07;4.00;;;;;;;27.49;44.87;98049.22;5040729;28;20012;-63
2021/06/22 09:58:42;;;;;;;13.98;4.07;;;;;;;27.54;44.26;98043.88;5039045;28;20056;-62
2021/06/22 10:01:27;;;;;;;13.10;4.10;;;;;;;27.72;43.92;98059.34;5036946;28;20033;-62
2021/06/22 10:03:52;;;;;;;12.40;4.32;;;;;;;27.56;44.21;98063.91;5035664;28;20037;-61
2021/06/22 10:06:18;;;;;;;11.70;4.18;;;;;;;27.49;44.84;98070.56;5035543;28;20506;-63
2021/06/22 10:08:55;;;;;;;14.15;4.18;;;;;;;27.15;44.84;98049.75;5028209;28;20029;-63
2021/06/22 10:11:31;;;;;;;11.52;4.13;;;;;;;26.93;46.23;98074.00;5037021;28;20064;-62
2021/06/22 10:13:57;;;;;;;10.25;3.85;;;;;;;26.57;45.96;98021.34;5052296;28;20053;-62
2021/06/22 10:16:24;;;;;;;14.75;4.15;;;;;;;26.54;46.52;98059.22;5046109;28;20028;-62
2021/06/22 10:18:50;;;;;;;13.73;4.65;;;;;;;26.50;47.37;98071.44;5053893;28;20056;-63
2021/06/22 10:21:16;;;;;;;9.88;3.67;;;;;;;26.13;47.05;98067.03;5042822;28;20502;-63
2021/06/22 10:23:42;;;;;;;13.18;4.22;;;;;;;26.14;47.54;98062.50;5040651;28;20029;-63
2021/06/22 10:26:08;;;;;;;16.45;4.22;;;;;;;26.20;47.04;98069.47;5039938;28;20360;-63
2021/06/22 10:28:34;;;;;;;12.98;4.50;;;;;;;26.18;47.58;98087.59;5053207;28;20065;-63
2021/06/22 10:30:59;;;;;;;13.23;4.10;;;;;;;26.05;48.31;98084.31;5033947;28;20040;-63
2021/06/22 10:33:25;;;;;;;11.38;3.95;;;;;;;26.04;48.23;98077.38;5035862;28;20860;-63
2021/06/22 10:35:51;;;;;;;12.68;4.25;;;;;;;26.09;48.10;98079.28;5037638;28;20025;-63
2021/06/22 10:38:19;;;;;;;13.50;4.60;;;;;;;26.28;47.81;98083.09;5048731;28;20045;-62
2021/06/22 10:40:44;;;;;;;12.20;4.40;;;;;;;26.36;47.21;98095.13;5035991;28;20535;-63
2021/06/22 10:43:10;;;;;;;12.65;4.30;;;;;;;26.35;47.40;98079.41;5038731;28;20036;-62
2021/06/22 10:45:54;;;;;;;12.82;4.50;;;;;;;26.25;47.42;98090.81;5039605;28;20031;-62
2021/06/22 10:48:20;;;;;;;15.25;4.68;;;;;;;26.01;48.67;98050.44;5026683;28;20369;-63
2021/06/22 10:50:45;;;;;;;12.02;4.13;;;;;;;26.10;47.95;98080.88;5029837;28;20056;-63
2021/06/22 10:53:11;;;;;;;14.70;4.50;;;;;;;26.18;47.55;98087.59;5039904;28;20118;-64
2021/06/22 10:55:41;;;;;;;12.40;4.25;;;;;;;26.23;47.70;98085.75;5040265;28;20040;-61
2021/06/22 10:58:07;;;;;;;12.90;4.30;;;;;;;26.22;48.36;98086.00;5031976;28;20048;-61
2021/06/22 11:00:48;;;;;;;13.20;4.13;;;;;;;26.37;48.12;98090.59;5040567;28;20029;-63
2021/06/22 11:03:21;;;;;;;13.35;4.05;;;;;;;26.37;47.31;98072.72;5038383;28;20412;-63
2021/06/22 11:05:47;;;;;;;12.68;4.30;;;;;;;26.55;47.91;98076.78;5032584;28;21332;-62
2021/06/22 11:08:13;;;;;;;11.57;4.22;;;;;;;26.66;46.93;98083.78;5033848;28;20028;-61
2021/06/22 11:10:39;;;;;;;18.25;4.60;;;;;;;26.62;46.69;98080.06;5039030;28;20055;-64
2021/06/22 11:13:05;;;;;;;12.88;4.03;;;;;;;26.36;46.78;98039.16;5036173;28;20024;-62
2021/06/22 11:15:45;;;;;;;13.75;4.15;;;;;;;26.60;46.85;98081.34;5033130;28;20029;-62
2021/06/22 11:18:16;;;;;;;14.80;4.60;;;;;;;26.39;46.81;98048.50;5033898;28;20028;-63
2021/06/22 11:20:42;;;;;;;15.25;4.13;;;;;;;26.47;47.43;98072.78;5038542;28;20072;-62
2021/06/22 11:23:13;;;;;;;16.48;4.60;;;;;;;26.51;46.64;98069.59;5032598;28;20029;-63
2021/06/22 11:26:00;;;;;;;15.52;4.57;;;;;;;26.45;47.47;98032.25;5034626;28;20055;-62